Time;durP1;ratioP1;P1;durP2;ratioP2;P2;SDS_P1;SDS_P2;PMS_P1;PMS_P2;Temp;Humidity;BMP_temperature;BMP_pressure;BME280_temperature;BME280_humidity;BME280_pressure;Samples;Min_cycle;Max_cycle;Signal;HPM_P1;HPM_P2
2023/05/06 00:01:40;;;;;;;171.98;33.92;;;;;;;;;;5032957;28;20025;-39
2023/05/06 00:04:07;;;;;;;185.48;36.67;;;;;;;;;;5031575;28;20103;-38
2023/05/06 00:06:34;;;;;;;172.88;35.15;;;;;;;;;;5032728;28;20026;-40
2023/05/06 00:09:01;;;;;;;168.38;35.40;;;;;;;;;;5032743;28;20029;-40
2023/05/06 00:11:28;;;;;;;195.13;35.35;;;;;;;;;;5031258;28;20041;-38
2023/05/06 00:13:55;;;;;;;161.07;34.25;;;;;;;;;;5032437;28;20037;-38
2023/05/06 00:16:22;;;;;;;176.68;34.50;;;;;;;;;;5032342;28;20037;-40
2023/05/06 00:18:49;;;;;;;164.15;34.70;;;;;;;;;;5032535;28;20029;-38
2023/05/06 00:21:16;;;;;;;180.43;34.95;;;;;;;;;;5032416;28;20045;-40
2023/05/06 00:23:43;;;;;;;153.10;33.45;;;;;;;;;;5032375;28;20392;-39
2023/05/06 00:26:10;;;;;;;163.18;34.70;;;;;;;;;;5028436;28;20044;-39
2023/05/06 00:28:38;;;;;;;148.00;34.92;;;;;;;;;;5031310;28;20029;-37
2023/05/06 00:31:05;;;;;;;159.48;34.75;;;;;;;;;;5022540;28;20029;-38
2023/05/06 00:33:32;;;;;;;141.13;33.40;;;;;;;;;;5011633;28;20347;-39
2023/05/06 00:35:59;;;;;;;153.35;33.45;;;;;;;;;;5021484;28;20091;-38
2023/05/06 00:38:26;;;;;;;158.02;33.85;;;;;;;;;;5040872;28;20026;-39
2023/05/06 00:40:53;;;;;;;141.38;33.58;;;;;;;;;;5034325;28;20036;-39
2023/05/06 00:43:19;;;;;;;142.73;32.38;;;;;;;;;;5031732;28;20043;-39
2023/05/06 00:45:47;;;;;;;134.07;33.78;;;;;;;;;;5030455;28;20033;-37
2023/05/06 00:48:15;;;;;;;146.50;35.92;;;;;;;;;;5030980;28;20021;-38
2023/05/06 00:50:42;;;;;;;132.68;32.42;;;;;;;;;;5028143;28;20021;-38
2023/05/06 00:53:09;;;;;;;146.65;35.85;;;;;;;;;;5031383;28;20060;-37
2023/05/06 00:55:37;;;;;;;141.98;35.78;;;;;;;;;;5031633;28;20154;-38
2023/05/06 00:58:05;;;;;;;133.82;34.88;;;;;;;;;;5031027;28;20047;-38
2023/05/06 01:00:32;;;;;;;152.95;36.63;;;;;;;;;;5037207;28;20028;-38
2023/05/06 01:02:59;;;;;;;137.90;35.83;;;;;;;;;;5041910;28;20067;-39
2023/05/06 01:05:29;;;;;;;143.98;35.25;;;;;;;;;;5041739;28;20021;-39
2023/05/06 01:07:59;;;;;;;124.55;33.75;;;;;;;;;;5040694;28;20033;-39
2023/05/06 01:10:26;;;;;;;127.55;33.33;;;;;;;;;;5040169;28;20065;-39
2023/05/06 01:13:08;;;;;;;130.55;34.20;;;;;;;;;;5034828;28;20036;-40
2023/05/06 01:15:48;;;;;;;113.57;33.33;;;;;;;;;;5036089;28;20125;-39
2023/05/06 01:18:17;;;;;;;119.10;32.63;;;;;;;;;;5028774;28;20034;-40
2023/05/06 01:20:48;;;;;;;111.13;32.33;;;;;;;;;;5016673;28;20053;-39
2023/05/06 01:23:15;;;;;;;114.50;32.03;;;;;;;;;;5012709;28;20083;-39
2023/05/06 01:25:42;;;;;;;115.03;32.00;;;;;;;;;;5014913;28;20037;-38
2023/05/06 01:28:10;;;;;;;110.95;31.85;;;;;;;;;;5014781;28;20022;-38
2023/05/06 01:30:53;;;;;;;111.30;31.70;;;;;;;;;;5010303;28;20068;-40
2023/05/06 01:33:19;;;;;;;;;;;;;;;;;;5010664;28;20033;-38
2023/05/06 01:35:50;;;;;;;103.28;31.30;;;;;;;;;;5009305;28;20612;-39
2023/05/06 01:38:35;;;;;;;93.63;30.05;;;;;;;;;;5019768;28;20125;-39
2023/05/06 01:41:02;;;;;;;100.57;31.15;;;;;;;;;;5011091;28;20400;-39
2023/05/06 01:43:33;;;;;;;96.72;29.90;;;;;;;;;;5008119;28;20061;-38
2023/05/06 01:46:01;;;;;;;98.72;29.60;;;;;;;;;;5010033;28;20057;-39
2023/05/06 01:48:32;;;;;;;86.05;28.45;;;;;;;;;;5011471;28;20030;-38
2023/05/06 01:50:59;;;;;;;102.50;30.45;;;;;;;;;;5024878;28;20033;-39
2023/05/06 01:53:26;;;;;;;92.95;29.30;;;;;;;;;;5024867;28;20037;-39
2023/05/06 01:55:53;;;;;;;98.38;30.88;;;;;;;;;;5023482;28;20033;-41
2023/05/06 01:58:20;;;;;;;92.93;30.13;;;;;;;;;;5027135;28;20558;-39
2023/05/06 02:00:47;;;;;;;99.85;29.52;;;;;;;;;;5028673;28;20127;-40
2023/05/06 02:03:14;;;;;;;89.70;29.08;;;;;;;;;;5025612;28;20029;-38
2023/05/06 02:05:41;;;;;;;92.60;29.25;;;;;;;;;;5005216;28;20131;-38
2023/05/06 02:08:08;;;;;;;84.97;27.83;;;;;;;;;;5021770;28;20029;-39
2023/05/06 02:10:35;;;;;;;96.40;29.80;;;;;;;;;;5022224;28;20035;-38
2023/05/06 02:13:02;;;;;;;89.90;29.02;;;;;;;;;;5000717;28;20030;-38
2023/05/06 02:15:29;;;;;;;91.03;29.33;;;;;;;;;;5004501;28;20029;-38
2023/05/06 02:17:56;;;;;;;85.40;28.80;;;;;;;;;;5004557;28;20105;-39
2023/05/06 02:20:23;;;;;;;83.35;27.38;;;;;;;;;;5020625;28;20049;-39
2023/05/06 02:22:50;;;;;;;82.43;28.63;;;;;;;;;;5042946;28;20061;-38
2023/05/06 02:25:17;;;;;;;88.05;28.85;;;;;;;;;;5043050;28;20048;-39
2023/05/06 02:27:44;;;;;;;78.55;26.42;;;;;;;;;;5044368;28;20601;-39
2023/05/06 02:30:11;;;;;;;80.45;27.80;;;;;;;;;;5043009;28;20130;-39
2023/05/06 02:32:38;;;;;;;72.85;27.88;;;;;;;;;;5042664;28;20107;-38
2023/05/06 02:35:05;;;;;;;77.80;26.90;;;;;;;;;;5033572;28;20030;-38
2023/05/06 02:37:32;;;;;;;89.40;27.35;;;;;;;;;;5033282;28;20160;-38
2023/05/06 02:39:59;;;;;;;79.60;28.10;;;;;;;;;;5033314;28;20025;-39
2023/05/06 02:42:26;;;;;;;78.15;27.73;;;;;;;;;;5033394;28;20029;-39
2023/05/06 02:44:53;;;;;;;78.88;27.85;;;;;;;;;;5033082;28;20037;-38
2023/05/06 02:47:20;;;;;;;73.20;25.92;;;;;;;;;;5033432;28;20093;-39
2023/05/06 02:49:47;;;;;;;78.32;27.25;;;;;;;;;;5015566;28;20037;-38
2023/05/06 02:52:14;;;;;;;73.57;26.48;;;;;;;;;;5033094;28;20546;-38
2023/05/06 02:54:41;;;;;;;73.53;26.65;;;;;;;;;;5033397;28;20383;-38
2023/05/06 02:57:08;;;;;;;78.13;26.60;;;;;;;;;;5033118;28;20029;-38
2023/05/06 02:59:35;;;;;;;70.15;27.10;;;;;;;;;;5015463;28;20056;-38
2023/05/06 03:02:03;;;;;;;76.13;26.02;;;;;;;;;;5033084;28;20041;-38
2023/05/06 03:04:30;;;;;;;81.80;26.73;;;;;;;;;;5032859;28;20099;-38
2023/05/06 03:06:56;;;;;;;73.15;26.15;;;;;;;;;;5032923;28;20541;-38
2023/05/06 03:09:23;;;;;;;75.47;27.10;;;;;;;;;;5032815;28;20025;-38
2023/05/06 03:11:50;;;;;;;69.13;25.10;;;;;;;;;;5032886;28;20380;-39
2023/05/06 03:14:17;;;;;;;70.97;26.33;;;;;;;;;;5032966;28;20041;-38
2023/05/06 03:16:44;;;;;;;74.70;27.88;;;;;;;;;;5033381;28;20124;-39
2023/05/06 03:19:11;;;;;;;74.75;25.73;;;;;;;;;;5028705;28;20438;-39
2023/05/06 03:21:38;;;;;;;69.10;25.13;;;;;;;;;;5013704;28;20030;-39
2023/05/06 03:24:06;;;;;;;65.10;25.67;;;;;;;;;;5012885;28;20033;-41
2023/05/06 03:26:32;;;;;;;67.75;24.92;;;;;;;;;;5012906;28;20030;-38
2023/05/06 03:28:59;;;;;;;66.13;24.27;;;;;;;;;;5012529;28;20026;-38
2023/05/06 03:31:26;;;;;;;71.95;26.02;;;;;;;;;;5012769;28;20030;-38
2023/05/06 03:33:53;;;;;;;70.55;25.38;;;;;;;;;;5011398;28;20062;-38
2023/05/06 03:36:24;;;;;;;72.93;24.85;;;;;;;;;;5012462;28;20025;-38
2023/05/06 03:38:51;;;;;;;73.55;25.50;;;;;;;;;;5012414;28;20037;-39
2023/05/06 03:41:18;;;;;;;61.88;24.33;;;;;;;;;;5012458;28;20034;-39
2023/05/06 03:43:45;;;;;;;62.13;24.30;;;;;;;;;;5012464;28;20511;-39
2023/05/06 03:46:12;;;;;;;59.83;23.88;;;;;;;;;;5012484;28;20061;-38
2023/05/06 03:48:39;;;;;;;62.85;23.38;;;;;;;;;;5012918;28;20034;-39
2023/05/06 03:51:06;;;;;;;61.75;24.05;;;;;;;;;;5013611;28;20026;-38
2023/05/06 03:53:33;;;;;;;61.88;23.83;;;;;;;;;;5013599;28;20403;-38
2023/05/06 03:56:00;;;;;;;61.47;24.38;;;;;;;;;;5013604;28;20391;-38
2023/05/06 03:58:27;;;;;;;65.40;24.13;;;;;;;;;;5013578;28;20113;-38
2023/05/06 04:00:54;;;;;;;71.32;25.25;;;;;;;;;;5013550;28;20156;-38
2023/05/06 04:03:21;;;;;;;64.35;23.75;;;;;;;;;;5013345;28;20076;-38
2023/05/06 04:05:49;;;;;;;65.45;23.60;;;;;;;;;;5013475;28;20034;-38
2023/05/06 04:08:16;;;;;;;55.25;23.05;;;;;;;;;;5013132;28;20388;-38
2023/05/06 04:10:43;;;;;;;65.15;23.98;;;;;;;;;;5013318;28;20462;-38
2023/05/06 04:13:10;;;;;;;63.20;24.65;;;;;;;;;;5013311;28;20026;-38
2023/05/06 04:15:37;;;;;;;60.42;23.48;;;;;;;;;;5013238;28;20033;-38
2023/05/06 04:18:06;;;;;;;58.30;22.60;;;;;;;;;;5013113;28;20131;-38
2023/05/06 04:20:33;;;;;;;67.60;23.10;;;;;;;;;;5025378;28;20060;-38
2023/05/06 04:23:00;;;;;;;56.20;23.25;;;;;;;;;;5032907;28;20026;-39
2023/05/06 04:25:27;;;;;;;54.83;23.77;;;;;;;;;;5032785;28;20033;-37
2023/05/06 04:27:55;;;;;;;60.97;23.40;;;;;;;;;;5032677;28;20495;-38
2023/05/06 04:30:22;;;;;;;61.75;23.42;;;;;;;;;;5032699;28;20021;-38
2023/05/06 04:32:49;;;;;;;58.20;22.33;;;;;;;;;;5031370;28;20025;-38
2023/05/06 04:35:15;;;;;;;51.63;22.40;;;;;;;;;;5032694;28;20056;-38
2023/05/06 04:37:43;;;;;;;57.13;22.60;;;;;;;;;;5032404;28;20129;-38
2023/05/06 04:40:12;;;;;;;61.13;23.10;;;;;;;;;;5032429;28;20454;-39
2023/05/06 04:42:39;;;;;;;64.38;22.58;;;;;;;;;;5032472;28;20554;-38
2023/05/06 04:45:06;;;;;;;57.33;21.77;;;;;;;;;;5032432;28;20117;-38
2023/05/06 04:47:33;;;;;;;56.45;22.15;;;;;;;;;;5032383;28;20029;-38
2023/05/06 04:50:00;;;;;;;53.67;21.92;;;;;;;;;;5032432;28;20112;-38
2023/05/06 04:52:27;;;;;;;60.78;23.17;;;;;;;;;;5032247;28;20395;-38
2023/05/06 04:54:54;;;;;;;61.90;22.17;;;;;;;;;;5032379;28;20112;-38
2023/05/06 04:57:21;;;;;;;58.20;21.95;;;;;;;;;;5032292;28;20392;-38
2023/05/06 04:59:48;;;;;;;62.80;21.48;;;;;;;;;;5032224;28;20026;-38
2023/05/06 05:02:15;;;;;;;53.38;21.33;;;;;;;;;;5032208;28;20033;-38
2023/05/06 05:04:42;;;;;;;58.78;22.30;;;;;;;;;;5032010;28;20116;-38
2023/05/06 05:07:09;;;;;;;55.72;22.52;;;;;;;;;;5032034;28;20037;-38
2023/05/06 05:09:36;;;;;;;64.60;21.50;;;;;;;;;;5032075;28;20567;-38
2023/05/06 05:12:03;;;;;;;54.08;20.85;;;;;;;;;;5032008;28;20089;-38
2023/05/06 05:14:30;;;;;;;57.47;21.05;;;;;;;;;;5031990;28;20037;-38
2023/05/06 05:16:57;;;;;;;56.15;20.30;;;;;;;;;;5031786;28;20040;-38
2023/05/06 05:19:24;;;;;;;53.33;20.00;;;;;;;;;;5031712;28;20040;-38
2023/05/06 05:21:51;;;;;;;53.92;21.35;;;;;;;;;;5031652;28;20030;-38
2023/05/06 05:24:18;;;;;;;51.38;21.20;;;;;;;;;;5031668;28;20487;-38
2023/05/06 05:26:45;;;;;;;51.25;20.38;;;;;;;;;;5031783;28;20044;-38
2023/05/06 05:29:12;;;;;;;50.38;20.48;;;;;;;;;;5031635;28;20108;-39
2023/05/06 05:31:39;;;;;;;54.80;20.13;;;;;;;;;;5031514;28;20026;-38
2023/05/06 05:34:06;;;;;;;55.60;21.10;;;;;;;;;;5031027;28;20041;-38
2023/05/06 05:36:33;;;;;;;50.20;20.27;;;;;;;;;;5031748;28;20025;-39
2023/05/06 05:39:00;;;;;;;50.75;19.73;;;;;;;;;;5031691;28;20080;-39
2023/05/06 05:41:27;;;;;;;56.95;20.08;;;;;;;;;;5031554;28;20041;-39
2023/05/06 05:43:54;;;;;;;53.47;19.67;;;;;;;;;;5030168;28;20499;-39
2023/05/06 05:46:21;;;;;;;49.72;19.27;;;;;;;;;;5031563;28;20099;-39
2023/05/06 05:48:48;;;;;;;51.85;19.27;;;;;;;;;;5031485;28;20422;-39
2023/05/06 05:51:15;;;;;;;47.05;19.05;;;;;;;;;;5031494;28;20079;-39
2023/05/06 05:53:41;;;;;;;49.65;19.73;;;;;;;;;;5031504;28;20025;-39
2023/05/06 05:56:08;;;;;;;44.38;18.98;;;;;;;;;;5031425;28;20463;-39
2023/05/06 05:58:35;;;;;;;51.42;20.17;;;;;;;;;;5031306;28;20042;-39
2023/05/06 06:01:02;;;;;;;55.33;18.80;;;;;;;;;;5030092;28;20094;-39
2023/05/06 06:03:29;;;;;;;53.08;19.48;;;;;;;;;;5031344;28;20028;-39
2023/05/06 06:05:56;;;;;;;42.20;17.55;;;;;;;;;;5031390;28;20026;-39
2023/05/06 06:08:23;;;;;;;52.35;18.98;;;;;;;;;;5031354;28;20053;-40
2023/05/06 06:10:50;;;;;;;53.22;18.83;;;;;;;;;;5031418;28;20484;-39
2023/05/06 06:13:17;;;;;;;46.55;18.52;;;;;;;;;;5031355;28;20774;-39
2023/05/06 06:15:45;;;;;;;43.25;18.15;;;;;;;;;;5031381;28;20034;-39
2023/05/06 06:18:12;;;;;;;42.33;17.92;;;;;;;;;;5031176;28;20391;-40
2023/05/06 06:20:39;;;;;;;47.22;18.02;;;;;;;;;;5031231;28;20037;-39
2023/05/06 06:23:06;;;;;;;46.13;17.90;;;;;;;;;;5031026;28;20108;-38
2023/05/06 06:25:33;;;;;;;41.88;17.90;;;;;;;;;;5031224;28;20129;-38
2023/05/06 06:28:00;;;;;;;38.88;17.13;;;;;;;;;;5031097;28;20503;-37
2023/05/06 06:30:27;;;;;;;46.05;18.05;;;;;;;;;;5031139;28;20025;-38
2023/05/06 06:32:55;;;;;;;42.97;17.45;;;;;;;;;;5031054;28;20033;-38
2023/05/06 06:35:22;;;;;;;43.72;17.85;;;;;;;;;;5031136;28;20041;-38
2023/05/06 06:37:49;;;;;;;42.88;17.50;;;;;;;;;;5031060;28;20033;-38
2023/05/06 06:40:16;;;;;;;39.72;15.82;;;;;;;;;;5031172;28;20033;-38
2023/05/06 06:42:44;;;;;;;50.83;18.08;;;;;;;;;;5031047;28;20029;-39
2023/05/06 06:45:11;;;;;;;42.55;16.80;;;;;;;;;;5033647;28;20045;-39
2023/05/06 06:47:38;;;;;;;44.13;17.05;;;;;;;;;;5034682;28;20484;-39
2023/05/06 06:50:06;;;;;;;44.50;17.05;;;;;;;;;;5034710;28;20391;-39
2023/05/06 06:52:33;;;;;;;44.65;17.55;;;;;;;;;;5034628;28;20033;-39
2023/05/06 06:55:00;;;;;;;42.85;15.65;;;;;;;;;;5034468;28;20040;-39
2023/05/06 06:57:27;;;;;;;39.30;16.55;;;;;;;;;;5034480;28;20025;-39
2023/05/06 06:59:54;;;;;;;42.85;16.20;;;;;;;;;;5034483;28;20060;-39
2023/05/06 07:02:21;;;;;;;41.63;16.63;;;;;;;;;;5034506;28;20709;-39
2023/05/06 07:04:48;;;;;;;45.60;16.50;;;;;;;;;;5032947;28;20410;-38
2023/05/06 07:07:15;;;;;;;41.22;15.90;;;;;;;;;;5034275;28;20034;-38
2023/05/06 07:09:43;;;;;;;43.63;15.45;;;;;;;;;;5034279;28;20028;-38
2023/05/06 07:12:10;;;;;;;40.28;16.40;;;;;;;;;;5034262;28;20052;-38
2023/05/06 07:14:37;;;;;;;42.08;15.52;;;;;;;;;;5034237;28;20450;-38
2023/05/06 07:17:04;;;;;;;36.95;15.80;;;;;;;;;;5034057;28;20080;-37
2023/05/06 07:19:31;;;;;;;43.10;15.73;;;;;;;;;;5033868;28;20500;-38
2023/05/06 07:21:58;;;;;;;42.92;15.50;;;;;;;;;;5034119;28;20414;-37
2023/05/06 07:24:25;;;;;;;34.55;15.25;;;;;;;;;;5034045;28;20044;-38
2023/05/06 07:26:52;;;;;;;37.97;15.57;;;;;;;;;;5034070;28;20076;-38
2023/05/06 07:29:19;;;;;;;42.47;15.18;;;;;;;;;;5034099;28;20026;-37
2023/05/06 07:31:46;;;;;;;38.47;15.38;;;;;;;;;;5033885;28;20506;-38
2023/05/06 07:34:13;;;;;;;39.00;16.23;;;;;;;;;;5033872;28;20037;-38
2023/05/06 07:36:42;;;;;;;37.05;15.10;;;;;;;;;;5033831;28;20026;-38
2023/05/06 07:39:09;;;;;;;34.28;15.05;;;;;;;;;;5033795;28;20029;-37
2023/05/06 07:41:36;;;;;;;32.75;14.57;;;;;;;;;;5033713;28;20053;-38
2023/05/06 07:44:03;;;;;;;37.55;14.50;;;;;;;;;;5033600;28;20175;-38
2023/05/06 07:46:30;;;;;;;32.95;14.43;;;;;;;;;;5033576;28;20081;-38
2023/05/06 07:49:01;;;;;;;31.83;14.52;;;;;;;;;;5032641;28;20103;-38
2023/05/06 07:51:28;;;;;;;35.42;13.63;;;;;;;;;;5033600;28;20510;-38
2023/05/06 07:53:55;;;;;;;37.05;14.90;;;;;;;;;;5033479;28;20686;-38
2023/05/06 07:56:21;;;;;;;34.30;14.63;;;;;;;;;;5051436;28;20087;-37
2023/05/06 07:58:48;;;;;;;34.33;14.52;;;;;;;;;;5053286;28;20487;-38
2023/05/06 08:01:15;;;;;;;34.65;14.48;;;;;;;;;;5053245;28;20059;-38
2023/05/06 08:03:42;;;;;;;37.03;15.18;;;;;;;;;;5053062;28;20040;-38
2023/05/06 08:06:09;;;;;;;37.55;14.15;;;;;;;;;;5053164;28;20033;-39
2023/05/06 08:08:36;;;;;;;34.00;13.57;;;;;;;;;;5053127;28;20029;-39
2023/05/06 08:11:03;;;;;;;33.13;13.60;;;;;;;;;;5053089;28;20095;-39
2023/05/06 08:13:32;;;;;;;33.65;13.98;;;;;;;;;;5053117;28;20051;-40
2023/05/06 08:16:01;;;;;;;30.00;12.82;;;;;;;;;;5052908;28;20029;-39
2023/05/06 08:18:28;;;;;;;33.13;13.88;;;;;;;;;;5052875;28;20033;-39
2023/05/06 08:20:55;;;;;;;36.35;13.85;;;;;;;;;;5052607;28;20059;-39
2023/05/06 08:23:22;;;;;;;34.90;13.98;;;;;;;;;;5052819;28;20063;-39
2023/05/06 08:25:49;;;;;;;28.80;12.68;;;;;;;;;;5052644;28;20514;-39
2023/05/06 08:28:16;;;;;;;34.05;13.13;;;;;;;;;;5052655;28;20171;-39
2023/05/06 08:30:46;;;;;;;34.00;12.82;;;;;;;;;;5052685;28;20521;-39
2023/05/06 08:33:13;;;;;;;30.77;12.75;;;;;;;;;;5052594;28;20033;-39
2023/05/06 08:35:40;;;;;;;30.15;13.00;;;;;;;;;;5052543;28;20040;-39
2023/05/06 08:38:07;;;;;;;31.25;12.57;;;;;;;;;;5052505;28;20032;-39
2023/05/06 08:40:34;;;;;;;32.25;13.00;;;;;;;;;;5052472;28;20032;-39
2023/05/06 08:43:02;;;;;;;35.95;13.20;;;;;;;;;;5052463;28;20052;-39
2023/05/06 08:45:29;;;;;;;35.42;13.23;;;;;;;;;;5052323;28;20036;-39
2023/05/06 08:47:56;;;;;;;24.50;12.43;;;;;;;;;;5052267;28;20459;-39
2023/05/06 08:50:24;;;;;;;30.23;12.82;;;;;;;;;;5052336;28;20048;-39
2023/05/06 08:52:51;;;;;;;31.23;13.20;;;;;;;;;;5052375;28;20510;-39
2023/05/06 08:55:19;;;;;;;32.83;12.63;;;;;;;;;;5052162;28;20049;-40
2023/05/06 08:57:46;;;;;;;32.85;12.57;;;;;;;;;;5052184;28;20104;-39
2023/05/06 09:00:14;;;;;;;31.65;12.82;;;;;;;;;;5052052;28;20060;-38
2023/05/06 09:02:41;;;;;;;31.33;12.73;;;;;;;;;;5052112;28;20017;-38
2023/05/06 09:05:10;;;;;;;32.60;12.68;;;;;;;;;;5051993;28;20111;-38
2023/05/06 09:07:37;;;;;;;29.70;12.35;;;;;;;;;;5051639;28;20037;-38
2023/05/06 09:10:12;;;;;;;28.83;12.57;;;;;;;;;;5052225;28;20040;-38
2023/05/06 09:12:39;;;;;;;33.58;11.55;;;;;;;;;;5050635;28;20491;-38
2023/05/06 09:15:06;;;;;;;29.67;11.70;;;;;;;;;;5051937;28;20055;-38
2023/05/06 09:17:33;;;;;;;30.38;12.20;;;;;;;;;;5051671;28;20115;-38
2023/05/06 09:20:00;;;;;;;27.00;11.55;;;;;;;;;;5051632;28;20059;-38
2023/05/06 09:22:28;;;;;;;28.30;11.35;;;;;;;;;;5051753;28;20754;-38
2023/05/06 09:24:56;;;;;;;27.27;12.00;;;;;;;;;;5051103;28;20605;-38
2023/05/06 09:27:24;;;;;;;26.02;12.05;;;;;;;;;;5051620;28;20037;-38
2023/05/06 09:30:07;;;;;;;27.45;11.88;;;;;;;;;;5051785;28;20028;-38
2023/05/06 09:32:35;;;;;;;30.17;12.00;;;;;;;;;;5051683;28;20044;-38
2023/05/06 09:35:02;;;;;;;31.70;12.32;;;;;;;;;;5051667;28;20368;-38
2023/05/06 09:37:29;;;;;;;34.58;12.80;;;;;;;;;;5051456;28;20025;-38
2023/05/06 09:39:57;;;;;;;28.77;11.77;;;;;;;;;;5051502;28;20391;-38
2023/05/06 09:42:25;;;;;;;28.48;11.10;;;;;;;;;;5051415;28;20078;-38
2023/05/06 09:44:53;;;;;;;22.20;11.20;;;;;;;;;;5050149;28;20068;-39
2023/05/06 09:47:24;;;;;;;26.40;11.35;;;;;;;;;;5051438;28;20036;-38
2023/05/06 09:49:51;;;;;;;30.88;12.85;;;;;;;;;;5051353;28;20036;-38
2023/05/06 09:52:19;;;;;;;23.83;10.43;;;;;;;;;;5051691;28;20108;-38
2023/05/06 09:54:46;;;;;;;26.70;11.55;;;;;;;;;;5051330;28;20079;-38
2023/05/06 09:57:15;;;;;;;22.50;11.15;;;;;;;;;;5051318;28;20039;-38
2023/05/06 09:59:44;;;;;;;22.58;11.38;;;;;;;;;;5051352;28;20095;-38
2023/05/06 10:02:14;;;;;;;23.67;11.27;;;;;;;;;;5051359;28;20045;-38
2023/05/06 10:04:42;;;;;;;24.75;12.02;;;;;;;;;;5051118;28;20434;-38
2023/05/06 10:07:12;;;;;;;27.20;11.73;;;;;;;;;;5051167;28;20025;-38
2023/05/06 10:09:40;;;;;;;22.92;10.77;;;;;;;;;;5051276;28;20491;-38
2023/05/06 10:12:08;;;;;;;25.30;11.65;;;;;;;;;;5051310;28;20021;-38
2023/05/06 10:14:36;;;;;;;24.75;10.93;;;;;;;;;;5050880;28;20021;-39
2023/05/06 10:17:07;;;;;;;25.90;11.18;;;;;;;;;;5051023;28;20098;-38
2023/05/06 10:19:34;;;;;;;21.83;11.27;;;;;;;;;;5053036;28;20056;-38
2023/05/06 10:22:04;;;;;;;24.42;10.88;;;;;;;;;;5055160;28;20074;-38
2023/05/06 10:24:33;;;;;;;26.48;11.90;;;;;;;;;;5055081;28;20044;-38
2023/05/06 10:27:03;;;;;;;22.45;9.95;;;;;;;;;;5054999;28;20112;-38
2023/05/06 10:29:31;;;;;;;25.83;11.38;;;;;;;;;;5054953;28;20061;-38
2023/05/06 10:31:59;;;;;;;21.15;11.00;;;;;;;;;;5055053;28;20037;-38
2023/05/06 10:34:28;;;;;;;22.48;10.93;;;;;;;;;;5054940;28;20394;-38
2023/05/06 10:36:57;;;;;;;21.75;11.07;;;;;;;;;;5054699;28;20090;-38
2023/05/06 10:39:24;;;;;;;23.92;10.80;;;;;;;;;;5054812;28;20021;-38
2023/05/06 10:41:51;;;;;;;25.55;11.25;;;;;;;;;;5054912;28;20411;-38
2023/05/06 10:44:18;;;;;;;26.77;11.30;;;;;;;;;;5054757;28;20041;-38
2023/05/06 10:46:58;;;;;;;25.50;10.80;;;;;;;;;;5054661;28;20040;-38
2023/05/06 10:49:25;;;;;;;22.55;10.52;;;;;;;;;;5054551;28;20040;-38
2023/05/06 10:52:12;;;;;;;23.08;10.65;;;;;;;;;;5054681;28;20537;-38
2023/05/06 10:54:49;;;;;;;24.42;10.88;;;;;;;;;;5054571;28;20076;-38
2023/05/06 10:57:17;;;;;;;24.40;10.70;;;;;;;;;;5054536;28;20033;-39
2023/05/06 10:59:47;;;;;;;23.40;11.35;;;;;;;;;;5054428;28;20040;-38
2023/05/06 11:02:17;;;;;;;20.20;10.15;;;;;;;;;;5054511;28;20032;-38
2023/05/06 11:04:50;;;;;;;20.77;10.13;;;;;;;;;;5054182;28;20068;-38
2023/05/06 11:07:24;;;;;;;21.58;10.50;;;;;;;;;;5054116;28;20545;-38
2023/05/06 11:09:58;;;;;;;22.27;10.35;;;;;;;;;;5054199;28;20112;-38
2023/05/06 11:12:43;;;;;;;20.48;10.70;;;;;;;;;;5054068;28;20029;-39
2023/05/06 11:15:20;;;;;;;24.45;11.20;;;;;;;;;;5054181;28;20033;-39
2023/05/06 11:17:47;;;;;;;22.15;10.55;;;;;;;;;;5053996;28;20037;-39
2023/05/06 11:20:32;;;;;;;20.75;10.05;;;;;;;;;;5053794;28;20098;-39
2023/05/06 11:22:59;;;;;;;22.45;10.18;;;;;;;;;;5053968;28;20033;-39
2023/05/06 11:25:52;;;;;;;21.65;9.95;;;;;;;;;;5053871;28;20037;-39
2023/05/06 11:28:19;;;;;;;23.30;10.93;;;;;;;;;;5040052;28;20048;-39
2023/05/06 11:30:54;;;;;;;21.08;10.40;;;;;;;;;;5033910;28;20100;-39
2023/05/06 11:33:22;;;;;;;20.85;10.82;;;;;;;;;;5033835;28;20112;-38
2023/05/06 11:35:50;;;;;;;22.70;10.15;;;;;;;;;;5033883;28;20033;-38
2023/05/06 11:38:17;;;;;;;23.88;10.63;;;;;;;;;;5033370;28;20107;-39
2023/05/06 11:40:44;;;;;;;18.40;10.52;;;;;;;;;;5033655;28;20029;-39
2023/05/06 11:43:15;;;;;;;18.17;10.35;;;;;;;;;;5033669;28;20682;-38
2023/05/06 11:45:49;;;;;;;20.55;10.93;;;;;;;;;;5037616;28;20419;-39
2023/05/06 11:48:17;;;;;;;23.23;11.02;;;;;;;;;;5039311;28;20041;-38
2023/05/06 11:50:46;;;;;;;21.10;10.57;;;;;;;;;;5044802;28;20100;-38
2023/05/06 11:53:22;;;;;;;21.42;10.25;;;;;;;;;;5049975;28;20180;-39
2023/05/06 11:55:53;;;;;;;23.02;10.23;;;;;;;;;;5043101;28;20455;-40
2023/05/06 11:58:23;;;;;;;25.23;10.45;;;;;;;;;;5050390;28;20029;-39
2023/05/06 12:00:53;;;;;;;23.52;10.65;;;;;;;;;;5043009;28;20041;-39
2023/05/06 12:03:20;;;;;;;27.05;10.32;;;;;;;;;;5022374;28;20487;-39
2023/05/06 12:05:47;;;;;;;25.42;10.80;;;;;;;;;;5049322;28;20523;-38
2023/05/06 12:08:22;;;;;;;26.40;11.07;;;;;;;;;;5031380;28;20029;-39
2023/05/06 12:10:50;;;;;;;25.60;10.30;;;;;;;;;;5035608;28;20037;-40
2023/05/06 12:13:17;;;;;;;22.85;10.80;;;;;;;;;;5043626;28;20360;-38
2023/05/06 12:15:45;;;;;;;28.60;10.25;;;;;;;;;;5052697;28;20431;-38
2023/05/06 12:18:12;;;;;;;22.95;10.35;;;;;;;;;;5052963;28;20110;-38
2023/05/06 12:20:39;;;;;;;25.17;9.98;;;;;;;;;;5052598;28;20084;-38
2023/05/06 12:23:06;;;;;;;24.20;10.50;;;;;;;;;;5052834;28;20024;-39
2023/05/06 12:25:33;;;;;;;21.58;9.90;;;;;;;;;;5052730;28;20060;-38
2023/05/06 12:28:00;;;;;;;22.52;10.98;;;;;;;;;;5052621;28;20552;-38
2023/05/06 12:30:31;;;;;;;27.40;10.80;;;;;;;;;;5052541;28;20438;-40
2023/05/06 12:33:02;;;;;;;25.35;10.73;;;;;;;;;;5052805;28;20753;-40
2023/05/06 12:35:29;;;;;;;28.60;10.40;;;;;;;;;;5039822;28;20060;-38
2023/05/06 12:37:57;;;;;;;26.60;10.30;;;;;;;;;;5032440;28;20022;-38
2023/05/06 12:40:24;;;;;;;28.95;9.77;;;;;;;;;;5032186;28;20057;-38
2023/05/06 12:42:54;;;;;;;25.40;9.85;;;;;;;;;;5031918;28;20063;-38
2023/05/06 12:45:21;;;;;;;22.23;10.23;;;;;;;;;;5032405;28;20033;-38
2023/05/06 12:47:58;;;;;;;23.05;9.98;;;;;;;;;;5035944;28;20134;-39
2023/05/06 12:50:32;;;;;;;23.83;9.75;;;;;;;;;;5040486;28;20036;-40
2023/05/06 12:52:59;;;;;;;24.25;10.85;;;;;;;;;;5040980;28;20541;-39
2023/05/06 12:55:27;;;;;;;19.85;9.48;;;;;;;;;;5036003;28;20078;-40
2023/05/06 12:57:54;;;;;;;24.70;9.45;;;;;;;;;;5037456;28;20036;-39
2023/05/06 13:00:21;;;;;;;24.08;9.65;;;;;;;;;;5018364;28;20025;-40
2023/05/06 13:02:48;;;;;;;21.52;9.10;;;;;;;;;;5029217;28;20041;-40
2023/05/06 13:05:15;;;;;;;27.73;9.15;;;;;;;;;;4994467;28;20042;-40
2023/05/06 13:07:42;;;;;;;24.90;9.60;;;;;;;;;;5020541;28;20025;-38
2023/05/06 13:10:09;;;;;;;25.38;9.15;;;;;;;;;;5026108;28;20037;-40
2023/05/06 13:12:36;;;;;;;24.15;9.07;;;;;;;;;;5032232;28;20025;-39
2023/05/06 13:15:03;;;;;;;22.40;9.23;;;;;;;;;;5021288;28;20030;-40
2023/05/06 13:17:30;;;;;;;16.42;8.10;;;;;;;;;;5012200;28;20030;-40
2023/05/06 13:19:57;;;;;;;25.38;9.15;;;;;;;;;;5020036;28;20058;-40
2023/05/06 13:22:24;;;;;;;20.00;8.13;;;;;;;;;;5049480;28;20033;-39
2023/05/06 13:24:52;;;;;;;20.20;8.27;;;;;;;;;;5051633;28;20052;-39
2023/05/06 13:27:19;;;;;;;20.20;7.97;;;;;;;;;;5051555;28;20108;-38
2023/05/06 13:29:46;;;;;;;16.25;8.07;;;;;;;;;;5051770;28;20053;-39
2023/05/06 13:32:13;;;;;;;23.10;8.60;;;;;;;;;;5051764;28;20035;-39
2023/05/06 13:34:40;;;;;;;16.90;8.20;;;;;;;;;;5051761;28;20033;-38
2023/05/06 13:37:07;;;;;;;20.38;7.45;;;;;;;;;;5050791;28;20025;-39
2023/05/06 13:39:34;;;;;;;20.50;8.18;;;;;;;;;;5050950;28;20032;-39
2023/05/06 13:42:01;;;;;;;19.58;7.93;;;;;;;;;;5051282;28;20029;-40
2023/05/06 13:44:28;;;;;;;18.80;7.38;;;;;;;;;;5050693;28;20029;-39
2023/05/06 13:46:55;;;;;;;18.23;7.75;;;;;;;;;;5050986;28;20116;-39
2023/05/06 13:49:22;;;;;;;24.85;7.85;;;;;;;;;;5050067;28;20028;-38
2023/05/06 13:51:49;;;;;;;14.88;7.57;;;;;;;;;;5051414;28;20399;-39
2023/05/06 13:54:16;;;;;;;21.40;7.43;;;;;;;;;;5050581;28;20029;-39
2023/05/06 13:56:43;;;;;;;21.08;6.93;;;;;;;;;;5051437;28;20029;-38
2023/05/06 13:59:12;;;;;;;22.02;6.78;;;;;;;;;;5051445;28;20065;-39
2023/05/06 14:01:40;;;;;;;18.60;6.95;;;;;;;;;;5048637;28;20087;-39
2023/05/06 14:04:07;;;;;;;17.27;6.47;;;;;;;;;;5050999;28;20402;-39
2023/05/06 14:06:34;;;;;;;16.05;6.88;;;;;;;;;;5050660;28;20040;-38
2023/05/06 14:09:01;;;;;;;16.88;6.90;;;;;;;;;;5050917;28;20039;-38
2023/05/06 14:11:28;;;;;;;19.88;7.07;;;;;;;;;;5050824;28;20060;-39
2023/05/06 14:13:56;;;;;;;17.83;6.85;;;;;;;;;;5049412;28;20029;-38
2023/05/06 14:16:23;;;;;;;16.80;6.70;;;;;;;;;;5049444;28;20112;-39
2023/05/06 14:18:50;;;;;;;18.98;6.85;;;;;;;;;;5050506;28;20082;-39
2023/05/06 14:21:17;;;;;;;13.85;6.45;;;;;;;;;;5036506;28;20045;-38
2023/05/06 14:23:44;;;;;;;19.77;6.13;;;;;;;;;;5034665;28;20383;-39